Time;durP1;ratioP1;P1;durP2;ratioP2;P2;SDS_P1;SDS_P2;PMS_P1;PMS_P2;Temp;Humidity;BMP_temperature;BMP_pressure;BME280_temperature;BME280_humidity;BME280_pressure;Samples;Min_cycle;Max_cycle;Signal;HPM_P1;HPM_P2
2022/05/24 00:01:20;;;;;;;21.17;17.47;;;13.70;99.90;;;;;;5019906;28;20518;-60
2022/05/24 00:03:47;;;;;;;18.17;16.20;;;13.70;99.90;;;;;;5020817;28;20518;-60
2022/05/24 00:06:16;;;;;;;20.63;17.73;;;13.70;99.90;;;;;;5021050;28;20830;-61
2022/05/24 00:08:46;;;;;;;20.10;17.90;;;13.80;99.90;;;;;;5020350;28;20460;-60
2022/05/24 00:11:13;;;;;;;20.30;17.00;;;13.80;99.90;;;;;;5000945;28;20469;-61
2022/05/24 00:13:42;;;;;;;19.93;17.83;;;13.80;99.90;;;;;;5006184;28;20900;-60
2022/05/24 00:16:09;;;;;;;20.23;18.30;;;13.80;99.90;;;;;;5021051;28;20497;-59
2022/05/24 00:18:36;;;;;;;21.93;19.63;;;13.80;99.90;;;;;;5020326;28;20840;-59
2022/05/24 00:21:07;;;;;;;21.60;19.40;;;13.80;99.90;;;;;;5019785;28;20542;-58
2022/05/24 00:23:38;;;;;;;22.27;19.90;;;13.80;99.90;;;;;;5020228;28;20517;-60
2022/05/24 00:26:09;;;;;;;22.47;20.27;;;13.80;99.90;;;;;;5020362;28;20472;-60
2022/05/24 00:28:39;;;;;;;24.20;21.70;;;13.80;99.90;;;;;;5020199;28;20525;-60
2022/05/24 00:31:08;;;;;;;25.97;23.40;;;13.80;99.90;;;;;;5019699;28;20464;-60
2022/05/24 00:33:35;;;;;;;27.37;24.67;;;13.80;99.90;;;;;;5020793;28;20522;-60
2022/05/24 00:36:03;;;;;;;24.47;21.73;;;13.80;99.90;;;;;;5019964;28;20464;-59
2022/05/24 00:38:36;;;;;;;28.37;25.57;;;13.80;99.90;;;;;;5019954;28;20467;-60
2022/05/24 00:41:17;;;;;;;26.07;23.57;;;13.90;99.90;;;;;;5019979;28;20463;-59
2022/05/24 00:43:53;;;;;;;26.17;23.57;;;13.90;99.90;;;;;;5020328;28;20433;-59
2022/05/24 00:46:23;;;;;;;24.70;22.30;;;13.80;99.90;;;;;;5020171;28;20896;-60
2022/05/24 00:48:56;;;;;;;26.37;23.77;;;13.80;99.90;;;;;;5019203;28;20460;-58
2022/05/24 00:51:29;;;;;;;24.93;22.40;;;13.80;99.90;;;;;;5019776;28;20907;-59
2022/05/24 00:53:56;;;;;;;26.00;23.60;;;13.80;99.90;;;;;;5020069;28;20759;-59
2022/05/24 00:56:42;;;;;;;25.33;22.90;;;13.80;99.90;;;;;;5019269;28;20487;-58
2022/05/24 00:59:19;;;;;;;25.80;23.30;;;13.80;99.90;;;;;;5018854;28;20493;-59
2022/05/24 01:01:47;;;;;;;26.13;23.43;;;13.80;99.90;;;;;;5018921;28;20471;-59
2022/05/24 01:04:19;;;;;;;28.63;25.63;;;13.80;99.90;;;;;;5019702;28;20464;-58
2022/05/24 01:06:47;;;;;;;29.10;24.97;;;13.90;99.90;;;;;;5019993;28;20475;-59
2022/05/24 01:09:18;;;;;;;28.47;25.47;;;13.90;99.90;;;;;;5019149;28;20818;-59
2022/05/24 01:11:49;;;;;;;28.37;25.30;;;13.90;99.90;;;;;;5019867;28;20471;-60
2022/05/24 01:14:19;;;;;;;26.70;23.80;;;13.90;99.90;;;;;;5019228;28;20497;-59
2022/05/24 01:16:48;;;;;;;28.23;25.43;;;13.90;99.90;;;;;;5019316;28;20492;-60
2022/05/24 01:19:26;;;;;;;26.47;23.73;;;13.90;99.90;;;;;;5018684;28;20550;-59
2022/05/24 01:22:00;;;;;;;25.73;23.10;;;13.90;99.90;;;;;;5019632;28;20538;-61
2022/05/24 01:24:35;;;;;;;26.57;23.63;;;13.80;99.90;;;;;;5018673;28;20496;-58
2022/05/24 01:27:03;;;;;;;25.00;22.53;;;13.90;99.90;;;;;;5018881;28;20784;-58
2022/05/24 01:29:30;;;;;;;26.00;23.17;;;13.80;99.90;;;;;;5018736;28;20542;-59
2022/05/24 01:37:28;;;;;;;26.20;23.60;;;13.90;99.90;;;;;;5018962;28;20495;-60
2022/05/24 01:39:58;;;;;;;24.20;21.60;;;13.90;99.90;;;;;;5018629;28;20555;-59
2022/05/24 01:42:28;;;;;;;26.37;23.53;;;13.90;99.90;;;;;;5018229;28;20460;-59
2022/05/24 01:45:03;;;;;;;25.93;23.23;;;13.90;99.90;;;;;;5018096;28;20463;-58
2022/05/24 01:47:32;;;;;;;26.27;23.47;;;14.00;99.90;;;;;;5019393;28;20754;-62
2022/05/24 01:50:05;;;;;;;26.00;23.20;;;13.90;99.90;;;;;;5018667;28;20948;-58
2022/05/24 01:52:37;;;;;;;26.10;23.30;;;14.00;99.90;;;;;;5018401;28;20464;-59
2022/05/24 01:55:08;;;;;;;30.00;24.73;;;14.00;99.90;;;;;;5018865;28;20811;-59
2022/05/24 01:57:41;;;;;;;29.07;25.00;;;14.00;99.90;;;;;;5018951;28;20491;-59
2022/05/24 02:00:13;;;;;;;30.43;26.50;;;14.00;99.90;;;;;;5018241;28;20534;-59
2022/05/24 02:02:40;;;;;;;34.20;30.60;;;13.90;99.90;;;;;;5018363;28;20507;-59
2022/05/24 02:05:08;;;;;;;34.47;28.47;;;13.90;99.90;;;;;;5018675;28;20475;-59
2022/05/24 02:07:41;;;;;;;32.87;29.27;;;13.90;99.90;;;;;;5017947;28;20745;-60
2022/05/24 02:10:10;;;;;;;41.40;29.80;;;13.90;99.90;;;;;;5018790;28;20921;-61
2022/05/24 02:12:44;;;;;;;35.03;31.43;;;13.90;99.90;;;;;;5018694;28;20468;-61
2022/05/24 02:15:14;;;;;;;28.93;25.83;;;13.90;99.90;;;;;;5018539;28;20807;-60
2022/05/24 02:17:45;;;;;;;30.83;26.13;;;13.80;99.90;;;;;;5016746;28;20574;-61
2022/05/24 02:20:19;;;;;;;29.40;25.47;;;13.80;99.90;;;;;;5018339;28;20460;-60
2022/05/24 02:22:47;;;;;;;24.90;22.30;;;13.80;99.90;;;;;;5018246;28;20468;-59
2022/05/24 02:25:21;;;;;;;25.17;22.57;;;13.80;99.90;;;;;;5018061;28;20492;-60
2022/05/24 02:27:50;;;;;;;26.40;23.70;;;13.90;99.90;;;;;;5018404;28;20540;-60
2022/05/24 02:30:20;;;;;;;24.47;21.73;;;13.80;99.90;;;;;;5017286;28;20741;-59
2022/05/24 02:32:50;;;;;;;28.07;24.53;;;13.80;99.90;;;;;;5017941;28;20603;-60
2022/05/24 02:35:18;;;;;;;25.97;22.90;;;13.70;99.90;;;;;;5018145;28;20816;-57
2022/05/24 02:37:47;;;;;;;23.33;20.83;;;13.70;99.90;;;;;;5018522;28;20932;-58
2022/05/24 02:43:03;;;;;;;24.00;21.40;;;13.70;99.90;;;;;;5017516;28;20530;-57
2022/05/24 02:45:32;;;;;;;24.57;21.97;;;13.70;99.90;;;;;;5017890;28;20914;-59
2022/05/24 02:48:02;;;;;;;22.47;19.00;;;13.70;99.90;;;;;;5018026;28;20461;-59
2022/05/24 02:50:30;;;;;;;21.03;18.83;;;13.70;99.90;;;;;;5016937;28;20438;-55
2022/05/24 02:52:57;;;;;;;20.37;18.17;;;13.70;99.90;;;;;;5017599;28;20474;-59
2022/05/24 02:55:26;;;;;;;23.10;20.70;;;13.70;99.90;;;;;;5017423;28;20492;-59
2022/05/24 02:57:54;;;;;;;25.90;20.37;;;13.70;99.90;;;;;;5018025;28;20546;-57
2022/05/24 03:00:25;;;;;;;21.20;18.87;;;13.70;99.90;;;;;;5017075;28;20468;-59
2022/05/24 03:02:56;;;;;;;21.77;18.90;;;13.70;99.90;;;;;;5017514;28;20592;-58
2022/05/24 03:05:25;;;;;;;21.27;18.63;;;13.70;99.90;;;;;;5017013;28;20464;-59
2022/05/24 03:10:37;;;;;;;21.07;18.97;;;13.70;99.90;;;;;;5017131;28;20434;-57
2022/05/24 03:15:51;;;;;;;21.80;19.30;;;13.70;99.90;;;;;;5017002;28;20467;-59
2022/05/24 03:18:21;;;;;;;21.90;19.73;;;13.70;99.90;;;;;;5017178;28;20502;-59
2022/05/24 03:20:48;;;;;;;21.43;19.20;;;13.60;99.90;;;;;;5016864;28;20530;-57
2022/05/24 03:23:16;;;;;;;19.07;17.17;;;13.60;99.90;;;;;;5017374;28;20523;-60
2022/05/24 03:25:43;;;;;;;17.50;15.80;;;13.60;99.90;;;;;;5016375;28;20491;-59
2022/05/24 03:28:11;;;;;;;22.30;18.43;;;13.50;99.90;;;;;;5017589;28;20537;-58
2022/05/24 03:30:41;;;;;;;16.60;13.90;;;13.50;99.90;;;;;;5016840;28;20901;-59
2022/05/24 03:33:14;;;;;;;14.93;13.43;;;13.40;99.90;;;;;;5017574;28;20488;-59
2022/05/24 03:35:41;;;;;;;17.77;13.93;;;13.40;99.90;;;;;;5016914;28;20463;-58
2022/05/24 03:38:09;;;;;;;18.30;13.80;;;13.50;99.90;;;;;;5017636;28;20584;-59
2022/05/24 03:40:37;;;;;;;15.60;13.90;;;13.50;99.90;;;;;;5017148;28;20467;-58
2022/05/24 03:43:11;;;;;;;18.00;14.07;;;13.50;99.90;;;;;;5017239;28;20468;-59
2022/05/24 03:45:38;;;;;;;14.47;13.10;;;13.40;99.90;;;;;;5016788;28;20506;-59
2022/05/24 03:48:06;;;;;;;15.37;12.87;;;13.40;99.90;;;;;;5017029;28;20851;-58
2022/05/24 03:50:37;;;;;;;14.67;12.03;;;13.50;99.90;;;;;;5016874;28;21018;-57
2022/05/24 03:53:04;;;;;;;13.47;11.30;;;13.50;99.90;;;;;;5017079;28;20527;-58
2022/05/24 03:55:34;;;;;;;25.60;12.73;;;13.40;99.90;;;;;;5017278;28;20969;-58
2022/05/24 03:58:00;;;;;;;13.10;9.90;;;13.40;99.90;;;;;;5016356;28;20492;-58
2022/05/24 04:00:34;;;;;;;13.47;11.00;;;13.40;99.90;;;;;;5015943;28;20460;-57
2022/05/24 04:03:05;;;;;;;11.40;9.60;;;13.30;99.90;;;;;;5015843;28;20460;-58
2022/05/24 04:05:34;;;;;;;14.70;9.40;;;13.20;99.90;;;;;;5013682;28;20456;-58
2022/05/24 04:08:02;;;;;;;10.20;9.10;;;13.20;99.90;;;;;;5015642;28;20591;-58
2022/05/24 04:10:30;;;;;;;11.60;10.57;;;13.20;99.90;;;;;;5016057;28;20463;-57
2022/05/24 04:12:57;;;;;;;9.63;8.63;;;13.20;99.90;;;;;;5014591;28;20469;-58
2022/05/24 04:15:24;;;;;;;14.03;8.47;;;13.20;99.90;;;;;;5016521;28;20461;-58
2022/05/24 04:17:52;;;;;;;13.00;8.13;;;13.20;99.90;;;;;;5021669;28;20837;-58
2022/05/24 04:20:22;;;;;;;9.67;8.50;;;13.20;99.90;;;;;;5016694;28;20816;-58
2022/05/24 04:22:52;;;;;;;13.00;8.90;;;13.10;99.90;;;;;;5015635;28;20464;-57
2022/05/24 04:25:20;;;;;;;9.17;7.90;;;13.10;99.90;;;;;;5015905;28;20503;-57
2022/05/24 04:27:49;;;;;;;10.50;7.93;;;13.10;99.90;;;;;;5015926;28;20562;-57
2022/05/24 04:30:16;;;;;;;11.53;7.63;;;13.10;99.90;;;;;;5014709;28;20949;-58
2022/05/24 04:32:44;;;;;;;10.00;7.47;;;13.20;99.90;;;;;;5018099;28;20827;-57
2022/05/24 04:35:11;;;;;;;11.93;7.50;;;13.30;99.90;;;;;;5022892;28;20443;-57
2022/05/24 04:37:38;;;;;;;12.57;7.13;;;13.20;99.90;;;;;;5030513;28;20522;-57
2022/05/24 04:40:10;;;;;;;12.17;7.23;;;13.20;99.90;;;;;;5018668;28;20530;-57
2022/05/24 04:42:38;;;;;;;8.97;6.67;;;13.20;99.90;;;;;;5036047;28;20492;-57
2022/05/24 04:45:08;;;;;;;12.70;7.00;;;13.20;1.00;;;;;;5018881;28;20445;-58
2022/05/24 04:47:36;;;;;;;9.53;7.37;;;13.20;99.90;;;;;;5035401;28;20465;-57
2022/05/24 04:50:06;;;;;;;11.90;6.70;;;13.20;99.90;;;;;;5028051;28;20908;-56
2022/05/24 04:52:35;;;;;;;7.93;5.90;;;13.20;1.00;;;;;;5023178;28;20478;-58
2022/05/24 04:55:05;;;;;;;9.83;6.07;;;13.20;1.00;;;;;;5025580;28;20799;-58
2022/05/24 04:57:33;;;;;;;9.90;5.83;;;13.20;1.00;;;;;;5037125;28;20541;-56
2022/05/24 05:00:00;;;;;;;9.47;6.73;;;13.20;1.00;;;;;;5034115;28;20883;-57
2022/05/24 05:02:33;;;;;;;14.17;6.47;;;13.10;99.90;;;;;;5018934;28;20551;-57
2022/05/24 05:05:03;;;;;;;7.37;5.77;;;13.10;99.90;;;;;;5037266;28;20470;-58
2022/05/24 05:07:30;;;;;;;10.10;6.37;;;13.00;99.90;;;;;;5037140;28;20463;-56
2022/05/24 05:09:57;;;;;;;10.43;5.80;;;12.90;78.10;;;;;;5029452;28;20517;-60
2022/05/24 05:12:26;;;;;;;8.80;5.30;;;12.90;99.90;;;;;;5020981;28;20525;-60
2022/05/24 05:14:54;;;;;;;8.23;6.80;;;12.90;69.50;;;;;;5032770;28;20484;-61
2022/05/24 05:17:24;;;;;;;12.60;5.60;;;12.70;99.90;;;;;;5023252;28;20503;-59
2022/05/24 05:19:55;;;;;;;11.00;5.40;;;12.70;99.90;;;;;;5039484;28;20828;-60
2022/05/24 05:22:23;;;;;;;11.30;5.97;;;12.60;99.90;;;;;;5028068;28;20477;-60
2022/05/24 05:24:51;;;;;;;7.83;6.33;;;12.60;99.90;;;;;;5038180;28;20982;-60
2022/05/24 05:27:18;;;;;;;8.60;6.10;;;12.50;1.00;;;;;;5025292;28;20533;-61
2022/05/24 05:32:33;;;;;;;7.30;6.00;;;12.50;82.10;;;;;;5032837;28;20428;-61
2022/05/24 05:35:02;;;;;;;7.67;5.80;;;12.50;99.90;;;;;;5038125;28;20494;-60
2022/05/24 05:37:33;;;;;;;7.87;6.77;;;12.40;1.00;;;;;;5028941;28;20474;-60
2022/05/24 05:40:04;;;;;;;10.97;6.53;;;12.40;99.90;;;;;;5038184;28;20529;-62
2022/05/24 05:42:31;;;;;;;8.93;5.87;;;12.50;1.00;;;;;;5026508;28;20511;-63
2022/05/24 05:45:00;;;;;;;8.27;6.43;;;12.40;1.00;;;;;;5029061;28;20471;-62
2022/05/24 05:47:26;;;;;;;9.87;6.20;;;12.40;1.00;;;;;;5034815;28;20759;-64
2022/05/24 05:49:56;;;;;;;10.80;6.60;;;12.30;99.90;;;;;;5037898;28;20503;-63
2022/05/24 05:52:23;;;;;;;10.50;5.70;;;12.20;1.00;;;;;;5032952;28;20522;-63
2022/05/24 05:54:50;;;;;;;8.47;5.80;;;12.20;1.00;;;;;;5030025;28;20470;-63
2022/05/24 05:57:19;;;;;;;7.27;5.73;;;12.20;1.00;;;;;;5026892;28;20828;-64
2022/05/24 05:59:46;;;;;;;9.63;5.50;;;12.10;1.00;;;;;;5030410;28;20582;-63
2022/05/24 06:02:13;;;;;;;10.17;5.90;;;12.10;1.00;;;;;;5036740;28;20596;-63
2022/05/24 06:04:40;;;;;;;6.67;5.10;;;12.00;1.00;;;;;;5015708;28;20508;-63
2022/05/24 06:07:23;;;;;;;9.80;5.90;;;12.00;99.90;;;;;;5018234;28;20472;-65
2022/05/24 06:09:53;;;;;;;8.53;6.00;;;12.00;99.90;;;;;;5015694;28;20485;-64
2022/05/24 06:12:26;;;;;;;9.93;5.60;;;12.00;96.00;;;;;;5016833;28;20559;-64
2022/05/24 06:14:53;;;;;;;9.43;6.87;;;12.00;99.90;;;;;;5015230;28;20522;-63
2022/05/24 06:17:21;;;;;;;7.17;5.20;;;12.00;1.00;;;;;;5017129;28;20467;-63
2022/05/24 06:19:48;;;;;;;8.83;6.07;;;11.90;1.00;;;;;;5018211;28;21006;-64
2022/05/24 06:22:18;;;;;;;7.63;5.37;;;11.80;99.90;;;;;;5034542;28;20842;-63
2022/05/24 06:24:46;;;;;;;8.90;4.87;;;11.90;1.00;;;;;;5023915;28;21023;-64
2022/05/24 06:27:14;;;;;;;7.43;4.57;;;11.90;99.90;;;;;;5036177;28;20553;-63
2022/05/24 06:29:41;;;;;;;7.03;4.20;;;11.90;99.90;;;;;;5037308;28;20463;-64
2022/05/24 06:32:11;;;;;;;9.10;4.43;;;12.00;99.90;;;;;;5036106;28;20908;-64
2022/05/24 06:34:38;;;;;;;8.60;5.20;;;11.90;99.90;;;;;;5029706;28;20503;-64
2022/05/24 06:37:08;;;;;;;8.87;5.10;;;11.90;14.40;;;;;;5035455;28;20522;-64
2022/05/24 06:39:38;;;;;;;6.17;4.10;;;11.80;99.90;;;;;;5024748;28;20506;-65
2022/05/24 06:42:06;;;;;;;8.07;4.80;;;11.90;95.90;;;;;;5019354;28;20438;-66
2022/05/24 06:44:33;;;;;;;8.37;4.67;;;11.80;1.00;;;;;;5032566;28;20464;-64
2022/05/24 06:47:01;;;;;;;7.17;4.63;;;11.70;77.10;;;;;;5035384;28;20466;-66
2022/05/24 06:49:28;;;;;;;5.87;4.63;;;11.70;99.90;;;;;;5028901;28;20711;-64
2022/05/24 06:51:56;;;;;;;5.90;4.37;;;11.80;1.00;;;;;;5017327;28;20914;-65
2022/05/24 06:54:23;;;;;;;6.10;4.57;;;11.80;1.00;;;;;;5016793;28;20445;-66
2022/05/24 06:56:51;;;;;;;5.07;4.20;;;11.80;43.50;;;;;;5018597;28;20940;-66
2022/05/24 07:04:50;;;;;;;4.47;3.03;;;12.00;99.90;;;;;;5037121;28;20752;-65
2022/05/24 07:07:22;;;;;;;4.40;3.40;;;11.90;26.30;;;;;;5022328;28;20550;-66
2022/05/24 07:09:55;;;;;;;7.20;3.70;;;12.00;9.30;;;;;;5033610;28;20522;-66
2022/05/24 07:12:24;;;;;;;4.77;3.37;;;12.10;1.00;;;;;;5023353;28;20466;-66
2022/05/24 07:14:52;;;;;;;5.53;3.93;;;12.30;99.90;;;;;;5036978;28;20433;-66
2022/05/24 07:17:19;;;;;;;5.23;3.50;;;12.50;1.00;;;;;;5027616;28;20964;-67
2022/05/24 07:19:48;;;;;;;3.60;2.87;;;12.50;99.90;;;;;;5036922;28;20491;-65
2022/05/24 07:22:15;;;;;;;5.50;3.43;;;12.60;1.00;;;;;;5023106;28;20957;-65
2022/05/24 07:24:43;;;;;;;8.27;3.20;;;12.50;99.90;;;;;;5036613;28;20493;-67
2022/05/24 07:27:14;;;;;;;4.27;3.50;;;12.50;99.90;;;;;;5027623;28;20570;-61
2022/05/24 07:29:45;;;;;;;7.00;3.77;;;12.50;99.90;;;;;;5025306;28;20521;-66
2022/05/24 07:32:12;;;;;;;6.80;3.20;;;12.50;99.90;;;;;;5029034;28;20471;-67
2022/05/24 07:34:40;;;;;;;5.70;3.50;;;12.50;99.90;;;;;;5036987;28;20844;-66
2022/05/24 07:37:12;;;;;;;6.40;3.97;;;12.70;99.90;;;;;;5030848;28;20482;-66
2022/05/24 07:39:42;;;;;;;5.07;3.13;;;12.80;99.90;;;;;;5026559;28;20493;-65
2022/05/24 07:47:39;;;;;;;4.10;3.27;;;13.00;1.00;;;;;;5028746;28;20494;-63
2022/05/24 07:50:08;;;;;;;6.13;3.83;;;13.10;1.00;;;;;;5032988;28;20518;-63
2022/05/24 07:52:35;;;;;;;4.77;3.90;;;13.40;1.00;;;;;;5025185;28;20471;-62
2022/05/24 07:55:03;;;;;;;4.30;3.60;;;13.70;1.00;;;;;;5035103;28;20446;-61
2022/05/24 07:57:30;;;;;;;4.43;3.73;;;14.50;1.00;;;;;;5034975;28;20801;-61
2022/05/24 08:00:00;;;;;;;5.20;3.33;;;14.60;1.00;;;;;;5017924;28;20510;-61
2022/05/24 08:02:26;;;;;;;3.67;3.33;;;15.00;1.00;;;;;;5027848;28;20467;-63
2022/05/24 08:04:54;;;;;;;7.27;4.30;;;15.20;1.00;;;;;;5034743;28;20437;-61
2022/05/24 08:07:23;;;;;;;5.97;3.80;;;15.10;1.00;;;;;;5040018;28;20469;-63
2022/05/24 08:09:52;;;;;;;6.33;4.23;;;14.90;1.00;;;;;;5023437;28;20522;-63
2022/05/24 08:12:20;;;;;;;4.40;4.00;;;14.70;1.00;;;;;;5037217;28;20437;-63
2022/05/24 08:14:46;;;;;;;4.70;3.80;;;14.50;1.00;;;;;;5038379;28;20474;-64
2022/05/24 08:17:15;;;;;;;7.90;4.53;;;15.10;1.00;;;;;;5040496;28;20459;-63
2022/05/24 08:19:42;;;;;;;5.27;4.13;;;15.50;1.00;;;;;;5027785;28;20508;-63
2022/05/24 08:22:09;;;;;;;5.43;3.17;;;16.10;1.00;;;;;;5038175;28;20498;-63
2022/05/24 08:24:41;;;;;;;5.50;3.90;;;16.10;99.90;;;;;;5022806;28;20490;-63
2022/05/24 08:27:14;;;;;;;5.77;3.67;;;15.50;99.90;;;;;;5040064;28;20858;-64
2022/05/24 08:29:41;;;;;;;5.67;4.17;;;15.00;99.90;;;;;;5018200;28;20460;-65
2022/05/24 08:32:08;;;;;;;6.30;4.70;;;14.50;99.90;;;;;;5040280;28;20531;-65
2022/05/24 08:34:38;;;;;;;5.10;4.70;;;14.50;99.90;;;;;;5031388;28;20891;-64
2022/05/24 08:37:08;;;;;;;5.20;4.70;;;14.40;99.90;;;;;;5039997;28;20463;-64
2022/05/24 08:39:35;;;;;;;5.57;4.80;;;14.60;1.00;;;;;;5026140;28;20491;-65
2022/05/24 08:42:13;;;;;;;5.23;4.30;;;15.50;99.90;;;;;;5040005;28;20498;-64
2022/05/24 08:50:19;;;;;;;6.50;4.00;;;16.60;99.90;;;;;;5018100;28;20492;-65
2022/05/24 08:52:53;;;;;;;5.40;3.60;;;16.10;99.90;;;;;;5016424;28;20465;-64
2022/05/24 08:55:20;;;;;;;6.73;3.50;;;16.00;99.90;;;;;;5019608;28;20526;-67
2022/05/24 08:57:53;;;;;;;3.93;3.30;;;16.60;99.90;;;;;;5016861;28;20565;-65
2022/05/24 09:00:25;;;;;;;6.30;2.90;;;17.20;99.90;;;;;;5018323;28;20903;-66
2022/05/24 09:02:54;;;;;;;3.87;3.40;;;17.80;99.90;;;;;;5020119;28;20535;-65
2022/05/24 09:05:29;;;;;;;3.80;3.30;;;17.30;99.90;;;;;;5016983;28;21000;-66
2022/05/24 09:08:13;;;;;;;5.13;2.90;;;16.60;99.90;;;;;;5020428;28;20498;-66
2022/05/24 09:10:48;;;;;;;7.30;4.53;;;16.10;99.90;;;;;;5017911;28;20468;-66
2022/05/24 09:13:53;;;;;;;4.60;3.03;;;17.00;99.90;;;;;;5019599;28;20463;-66
2022/05/24 09:19:45;;;;;;;4.60;2.93;;;16.40;99.90;;;;;;5022224;28;20832;-66
2022/05/24 09:22:14;;;;;;;7.10;3.37;;;16.10;99.90;;;;;;5027190;28;20476;-66
2022/05/24 09:24:44;;;;;;;4.00;3.23;;;15.80;99.90;;;;;;5037809;28;20498;-66
2022/05/24 09:27:14;;;;;;;3.77;2.83;;;15.70;99.90;;;;;;5039440;28;20459;-65
2022/05/24 09:29:57;;;;;;;7.17;2.97;;;15.30;99.90;;;;;;5039128;28;20528;-66
2022/05/24 09:32:31;;;;;;;5.87;3.93;;;15.00;99.90;;;;;;5030353;28;20489;-69
2022/05/24 09:35:05;;;;;;;5.40;3.37;;;15.10;99.90;;;;;;5035657;28;20616;-68
2022/05/24 09:37:33;;;;;;;5.20;3.50;;;15.20;99.90;;;;;;5033029;28;20452;-69
2022/05/24 09:40:07;;;;;;;6.03;3.77;;;15.10;99.90;;;;;;5021511;28;20496;-66
2022/05/24 09:42:36;;;;;;;5.37;3.33;;;15.00;99.90;;;;;;5018189;28;20447;-66
2022/05/24 09:45:09;;;;;;;4.90;3.53;;;14.80;99.90;;;;;;5034723;28;20537;-68
2022/05/24 09:47:53;;;;;;;4.70;4.17;;;14.70;99.90;;;;;;5032512;28;20496;-67
2022/05/24 09:50:29;;;;;;;5.73;3.60;;;14.60;99.90;;;;;;4999805;28;20500;-68
2022/05/24 09:53:15;;;;;;;4.80;4.03;;;14.50;99.90;;;;;;5024435;28;20463;-68
2022/05/24 09:55:48;;;;;;;4.20;2.77;;;14.50;99.90;;;;;;5036667;28;20544;-67
2022/05/24 09:58:30;;;;;;;6.20;2.60;;;14.60;99.90;;;;;;5023334;28;20466;-67
2022/05/24 10:00:59;;;;;;;7.13;3.33;;;14.60;99.90;;;;;;5037985;28;20498;-67
2022/05/24 10:03:32;;;;;;;5.23;3.10;;;14.50;99.90;;;;;;5029247;28;20499;-67
2022/05/24 10:06:15;;;;;;;3.37;2.63;;;14.40;99.90;;;;;;5037824;28;20808;-69
2022/05/24 10:08:48;;;;;;;7.27;2.83;;;14.50;99.90;;;;;;5019054;28;20529;-68
2022/05/24 10:11:41;;;;;;;4.43;2.70;;;14.80;99.90;;;;;;5037903;28;20498;-65
2022/05/24 10:14:33;;;;;;;3.60;2.90;;;15.60;99.90;;;;;;5032001;28;20900;-69
2022/05/24 10:17:08;;;;;;;3.20;2.73;;;15.90;99.90;;;;;;5033354;28;20534;-66
2022/05/24 10:19:50;;;;;;;5.77;3.80;;;15.60;99.90;;;;;;5035910;28;20803;-67
2022/05/24 10:22:33;;;;;;;3.13;2.83;;;15.50;99.90;;;;;;5025046;28;20448;-68
2022/05/24 10:25:13;;;;;;;4.17;2.87;;;15.40;99.90;;;;;;5020812;28;20530;-68
2022/05/24 10:28:01;;;;;;;5.10;3.90;;;15.40;99.90;;;;;;5035781;28;20466;-68
2022/05/24 10:30:37;;;;;;;3.70;2.97;;;15.70;99.90;;;;;;5034468;28;20525;-66
2022/05/24 10:39:15;;;;;;;4.57;3.33;;;17.50;99.90;;;;;;5020242;28;20448;-66
2022/05/24 10:41:54;;;;;;;3.80;3.40;;;17.90;99.90;;;;;;5035929;28;20733;-66
2022/05/24 10:44:32;;;;;;;4.20;3.17;;;18.10;99.90;;;;;;5026722;28;20495;-66
2022/05/24 10:47:06;;;;;;;3.07;2.40;;;18.60;99.90;;;;;;5001425;28;20927;-66
2022/05/24 10:49:40;;;;;;;3.70;2.50;;;18.60;99.90;;;;;;5022952;28;20434;-66
2022/05/24 10:52:13;;;;;;;4.73;2.83;;;18.40;99.90;;;;;;5036729;28;20883;-68
2022/05/24 10:54:46;;;;;;;4.27;3.03;;;17.80;99.90;;;;;;5031283;28;20467;-68
2022/05/24 10:57:20;;;;;;;6.90;2.70;;;18.00;99.90;;;;;;5036976;28;20463;-65
2022/05/24 10:59:55;;;;;;;5.70;3.53;;;18.40;99.90;;;;;;5026859;28;20548;-69
2022/05/24 11:02:33;;;;;;;3.37;3.00;;;19.00;99.90;;;;;;5036173;28;20462;-65
2022/05/24 11:05:07;;;;;;;6.57;3.57;;;18.50;99.90;;;;;;5027847;28;20464;-65
2022/05/24 11:07:37;;;;;;;8.07;2.90;;;18.80;99.90;;;;;;5026845;28;20496;-66
2022/05/24 11:10:14;;;;;;;2.93;2.53;;;19.50;99.90;;;;;;5037376;28;20756;-68
2022/05/24 11:12:50;;;;;;;4.40;2.80;;;19.90;99.90;;;;;;5027654;28;20471;-69
2022/05/24 11:15:23;;;;;;;5.20;2.10;;;20.40;99.90;;;;;;5014821;28;20903;-67
2022/05/24 11:17:54;;;;;;;4.90;2.60;;;20.80;99.90;;;;;;5023997;28;20472;-69
2022/05/24 11:20:30;;;;;;;2.90;2.10;;;20.70;99.90;;;;;;5016382;28;20466;-69
2022/05/24 11:23:12;;;;;;;4.63;2.87;;;20.90;99.90;;;;;;5021132;28;20972;-69
2022/05/24 11:25:49;;;;;;;3.60;2.37;;;21.50;99.90;;;;;;5023834;28;20499;-67
2022/05/24 11:28:25;;;;;;;3.77;2.20;;;21.10;99.90;;;;;;5026021;28;20472;-68
2022/05/24 11:30:54;;;;;;;4.07;3.23;;;20.70;99.90;;;;;;5020084;28;20743;-67
2022/05/24 11:33:43;;;;;;;5.83;2.90;;;20.00;99.90;;;;;;5035615;28;20532;-63
2022/05/24 11:36:40;;;;;;;3.93;2.73;;;20.30;99.90;;;;;;5026608;28;20788;-67
2022/05/24 11:39:12;;;;;;;4.50;2.80;;;21.30;99.90;;;;;;5036142;28;20521;-64
2022/05/24 11:41:39;;;;;;;5.00;2.30;;;22.10;99.90;;;;;;5020664;28;20534;-64
2022/05/24 11:44:38;;;;;;;3.23;2.93;;;22.50;99.90;;;;;;5020631;28;20519;-65
2022/05/24 11:47:06;;;;;;;3.47;2.40;;;21.80;99.90;;;;;;5000748;28;20464;-65
2022/05/24 11:50:07;;;;;;;3.60;3.23;;;20.20;99.90;;;;;;5027216;28;20462;-67
2022/05/24 11:53:00;;;;;;;3.40;2.30;;;19.30;99.90;;;;;;5031409;28;20466;-66
2022/05/24 11:55:44;;;;;;;6.27;2.77;;;18.80;99.90;;;;;;5018088;28;20922;-64
2022/05/24 11:58:49;;;;;;;3.63;3.00;;;18.30;99.90;;;;;;5017200;28;20563;-66
2022/05/24 12:01:50;;;;;;;3.70;2.83;;;18.10;99.90;;;;;;5028372;28;20519;-66
2022/05/24 12:10:53;;;;;;;5.77;2.50;;;21.00;99.90;;;;;;4992498;28;20429;-67
2022/05/24 12:13:46;;;;;;;5.93;2.30;;;21.20;99.90;;;;;;5011454;28;20465;-64
2022/05/24 12:16:32;;;;;;;6.30;2.60;;;21.70;99.90;;;;;;5005461;28;20511;-68
2022/05/24 12:19:07;;;;;;;4.07;2.67;;;21.20;99.90;;;;;;5013351;28;20936;-66
2022/05/24 12:22:00;;;;;;;5.57;2.67;;;20.40;99.90;;;;;;5010448;28;21043;-65
2022/05/24 12:24:54;;;;;;;3.73;2.37;;;19.30;99.90;;;;;;5015106;28;20557;-64
2022/05/24 12:27:32;;;;;;;4.20;3.00;;;18.50;99.90;;;;;;5016125;28;20464;-64
2022/05/24 12:30:15;;;;;;;3.60;2.23;;;18.30;99.90;;;;;;5016767;28;20908;-64
2022/05/24 12:32:42;;;;;;;3.80;2.37;;;18.80;99.90;;;;;;5016451;28;20463;-66
2022/05/24 12:35:14;;;;;;;3.63;2.43;;;19.20;99.90;;;;;;5015306;28;20519;-64
2022/05/24 12:37:47;;;;;;;5.33;2.50;;;19.20;99.90;;;;;;5016269;28;20526;-65
2022/05/24 12:40:27;;;;;;;2.63;2.33;;;20.20;99.90;;;;;;5016724;28;20492;-65
2022/05/24 12:42:56;;;;;;;3.90;2.60;;;20.70;99.90;;;;;;5016864;28;20563;-64
2022/05/24 12:45:33;;;;;;;2.50;2.27;;;20.90;99.90;;;;;;5015989;28;20438;-64
2022/05/24 12:48:02;;;;;;;4.50;2.70;;;20.60;99.90;;;;;;5016712;28;20474;-65
2022/05/24 12:50:36;;;;;;;5.00;3.10;;;19.90;99.90;;;;;;5016533;28;20487;-65
2022/05/24 12:53:09;;;;;;;5.03;3.00;;;19.30;99.90;;;;;;5018890;28;20855;-65
2022/05/24 12:55:57;;;;;;;4.90;3.30;;;18.90;99.90;;;;;;5019485;28;20489;-65
2022/05/24 12:58:28;;;;;;;4.60;2.80;;;18.30;99.90;;;;;;5019446;28;20470;-64
2022/05/24 13:01:15;;;;;;;3.90;2.60;;;18.20;99.90;;;;;;5018466;28;20487;-64
2022/05/24 13:04:00;;;;;;;4.53;2.87;;;18.30;99.90;;;;;;5014292;28;20478;-64
2022/05/24 13:06:31;;;;;;;5.60;3.40;;;18.40;99.90;;;;;;5015049;28;20460;-64
2022/05/24 13:09:19;;;;;;;5.00;3.13;;;18.40;99.90;;;;;;5015417;28;20809;-65
2022/05/24 13:11:49;;;;;;;4.50;3.00;;;18.70;99.90;;;;;;5017174;28;20909;-65
2022/05/24 13:14:36;;;;;;;2.83;2.53;;;19.00;99.90;;;;;;5017283;28;20452;-65
2022/05/24 13:17:05;;;;;;;3.67;3.33;;;19.40;99.90;;;;;;5014340;28;20890;-65
2022/05/24 13:19:45;;;;;;;6.77;2.93;;;20.30;99.90;;;;;;5019357;28;20517;-65
2022/05/24 13:22:14;;;;;;;4.87;3.10;;;19.90;99.90;;;;;;5018358;28;20466;-64
2022/05/24 13:25:05;;;;;;;2.87;2.53;;;19.20;99.90;;;;;;5019054;28;20918;-63
2022/05/24 13:27:57;;;;;;;5.67;2.83;;;18.50;99.90;;;;;;5003949;28;20499;-64
2022/05/24 13:33:35;;;;;;;3.03;2.77;;;17.80;99.90;;;;;;5018458;28;20569;-63
2022/05/24 13:36:24;;;;;;;5.63;2.57;;;17.40;99.90;;;;;;5019581;28;20525;-64
2022/05/24 13:39:11;;;;;;;5.10;3.17;;;17.40;99.90;;;;;;5011150;28;20534;-63
2022/05/24 13:41:42;;;;;;;5.57;2.90;;;18.00;99.90;;;;;;5019270;28;20793;-65
2022/05/24 13:44:22;;;;;;;5.57;2.70;;;18.40;99.90;;;;;;5017194;28;20508;-65
2022/05/24 13:46:56;;;;;;;5.83;3.30;;;18.70;99.90;;;;;;5018589;28;20503;-65
2022/05/24 13:49:38;;;;;;;3.60;2.27;;;18.70;99.90;;;;;;4999020;28;20913;-65
2022/05/24 13:52:27;;;;;;;4.00;2.77;;;18.80;99.90;;;;;;5006699;28;20924;-65
2022/05/24 13:55:23;;;;;;;2.90;2.13;;;18.70;99.90;;;;;;5019268;28;20442;-68
2022/05/24 13:58:06;;;;;;;3.60;2.57;;;18.30;99.90;;;;;;5018057;28;20461;-65
2022/05/24 14:00:45;;;;;;;3.20;2.70;;;17.70;99.90;;;;;;5019018;28;20506;-64